Dati Storici

Data ora Umidita' aria (%) Temperatura aria (°C) Rad globale (W/m²) Gonioanemometro (°) Tacoanemometro (m/s) Pioggia (mm)
03-07-2020 06:10 88.6 % 21.303 5.176 1.481 0 0
03-07-2020 06:00 93.2 % 21.123 -66.259 -0.015 0 0
03-07-2020 05:50 94 % 20.783 -6.931 0.804 0 0
03-07-2020 05:40 97 % 20.501 -12.373 -0.015 0 0
03-07-2020 05:30 97.4 % 20.332 -66.446 -0.015 0 0
03-07-2020 05:20 97.6 % 20.148 -72.681 0.785 0 0
03-07-2020 05:10 97.6 % 20.043 -66.305 0.501 0 0
03-07-2020 05:00 97.6 % 19.966 -9.206 0.157 0 0
03-07-2020 04:50 97.6 % 19.976 2.081 0.441 0 0
03-07-2020 04:40 97.7 % 19.924 -41.542 -0.012 0 0
03-07-2020 04:30 97.7 % 20.044 16.622 0.267 0 0
03-07-2020 04:20 97.7 % 20.156 -65.177 -0.017 0 0
03-07-2020 04:10 97.7 % 20.282 -14.619 1.893 0 0
03-07-2020 04:00 97.8 % 20.403 13.454 1.572 0 0
03-07-2020 03:50 97.8 % 20.577 13.092 1.2 0 0
03-07-2020 03:40 97.8 % 20.601 11.996 0.649 0 0
03-07-2020 03:30 97.8 % 20.543 -68.476 -0.016 0 0
03-07-2020 03:20 97.8 % 20.578 -67.357 -0.01 0 0
03-07-2020 03:10 97.8 % 20.727 -3.963 -0.016 0 0
03-07-2020 03:00 97.8 % 20.689 -68.238 1.176 0 0

I dati sono presentati in modo automatico a scopo informativo. In seguito a verifica i dati possono subire modifiche o essere invalidati e non riportati negli archivi definitivi.